sensor_id;sensor_type;location;lat;lon;timestamp;P1;durP1;ratioP1;P2;durP2;ratioP2
20635;SDS011;10477;43.198;27.916;2022-09-03T00:00:26;96.70;;;88.30;;
20635;SDS011;10477;43.198;27.916;2022-09-03T00:06:04;91.95;;;83.75;;
20635;SDS011;10477;43.198;27.916;2022-09-03T00:11:11;79.97;;;72.97;;
20635;SDS011;10477;43.198;27.916;2022-09-03T00:13:46;69.55;;;63.20;;
20635;SDS011;10477;43.198;27.916;2022-09-03T00:16:23;71.50;;;64.90;;
20635;SDS011;10477;43.198;27.916;2022-09-03T00:18:54;71.87;;;65.03;;
20635;SDS011;10477;43.198;27.916;2022-09-03T00:24:00;66.47;;;59.88;;
20635;SDS011;10477;43.198;27.916;2022-09-03T00:26:32;77.27;;;70.12;;
20635;SDS011;10477;43.198;27.916;2022-09-03T00:29:02;71.45;;;64.75;;
20635;SDS011;10477;43.198;27.916;2022-09-03T00:31:35;70.42;;;63.92;;
20635;SDS011;10477;43.198;27.916;2022-09-03T00:34:14;65.52;;;59.93;;
20635;SDS011;10477;43.198;27.916;2022-09-03T00:36:40;66.80;;;61.30;;
20635;SDS011;10477;43.198;27.916;2022-09-03T00:39:20;69.10;;;63.60;;
20635;SDS011;10477;43.198;27.916;2022-09-03T00:45:09;57.80;;;53.20;;
20635;SDS011;10477;43.198;27.916;2022-09-03T00:53:11;57.48;;;53.08;;
20635;SDS011;10477;43.198;27.916;2022-09-03T00:55:57;54.27;;;50.08;;
20635;SDS011;10477;43.198;27.916;2022-09-03T01:01:01;53.08;;;48.98;;
20635;SDS011;10477;43.198;27.916;2022-09-03T01:06:37;53.78;;;49.60;;
20635;SDS011;10477;43.198;27.916;2022-09-03T01:09:06;50.12;;;46.35;;
20635;SDS011;10477;43.198;27.916;2022-09-03T01:11:47;53.23;;;49.23;;
20635;SDS011;10477;43.198;27.916;2022-09-03T01:14:35;53.83;;;49.83;;
20635;SDS011;10477;43.198;27.916;2022-09-03T01:17:26;50.15;;;46.25;;
20635;SDS011;10477;43.198;27.916;2022-09-03T01:25:51;52.63;;;48.53;;
20635;SDS011;10477;43.198;27.916;2022-09-03T01:36:28;61.92;;;57.30;;
20635;SDS011;10477;43.198;27.916;2022-09-03T01:38:55;66.02;;;61.02;;
20635;SDS011;10477;43.198;27.916;2022-09-03T01:41:26;64.17;;;59.27;;
20635;SDS011;10477;43.198;27.916;2022-09-03T01:47:07;68.92;;;63.92;;
20635;SDS011;10477;43.198;27.916;2022-09-03T01:49:48;60.98;;;56.48;;
20635;SDS011;10477;43.198;27.916;2022-09-03T01:55:00;61.18;;;56.77;;
20635;SDS011;10477;43.198;27.916;2022-09-03T02:00:16;60.75;;;56.37;;
20635;SDS011;10477;43.198;27.916;2022-09-03T02:02:47;59.50;;;55.20;;
20635;SDS011;10477;43.198;27.916;2022-09-03T02:05:22;53.20;;;49.20;;
20635;SDS011;10477;43.198;27.916;2022-09-03T02:08:06;55.35;;;51.15;;
20635;SDS011;10477;43.198;27.916;2022-09-03T02:10:53;49.25;;;45.43;;
20635;SDS011;10477;43.198;27.916;2022-09-03T02:13:13;48.10;;;44.40;;
20635;SDS011;10477;43.198;27.916;2022-09-03T02:15:39;50.12;;;46.33;;
20635;SDS011;10477;43.198;27.916;2022-09-03T02:18:15;48.52;;;44.83;;
20635;SDS011;10477;43.198;27.916;2022-09-03T02:20:41;50.15;;;46.25;;
20635;SDS011;10477;43.198;27.916;2022-09-03T02:23:09;50.38;;;46.40;;
20635;SDS011;10477;43.198;27.916;2022-09-03T02:25:38;53.40;;;49.30;;
20635;SDS011;10477;43.198;27.916;2022-09-03T02:28:08;55.98;;;51.50;;
20635;SDS011;10477;43.198;27.916;2022-09-03T02:30:38;59.38;;;54.67;;
20635;SDS011;10477;43.198;27.916;2022-09-03T02:33:07;61.13;;;56.45;;
20635;SDS011;10477;43.198;27.916;2022-09-03T02:35:35;55.80;;;51.50;;
20635;SDS011;10477;43.198;27.916;2022-09-03T02:38:09;55.10;;;50.80;;
20635;SDS011;10477;43.198;27.916;2022-09-03T02:40:39;55.90;;;51.50;;
20635;SDS011;10477;43.198;27.916;2022-09-03T02:43:11;55.15;;;50.75;;
20635;SDS011;10477;43.198;27.916;2022-09-03T02:45:37;52.08;;;47.78;;
20635;SDS011;10477;43.198;27.916;2022-09-03T02:48:11;51.98;;;47.88;;
20635;SDS011;10477;43.198;27.916;2022-09-03T02:50:41;55.20;;;50.90;;
20635;SDS011;10477;43.198;27.916;2022-09-03T02:53:09;57.27;;;52.78;;
20635;SDS011;10477;43.198;27.916;2022-09-03T02:55:37;54.23;;;49.93;;
20635;SDS011;10477;43.198;27.916;2022-09-03T02:58:04;54.60;;;50.30;;
20635;SDS011;10477;43.198;27.916;2022-09-03T03:00:33;59.27;;;54.77;;
20635;SDS011;10477;43.198;27.916;2022-09-03T03:03:02;57.80;;;53.30;;
20635;SDS011;10477;43.198;27.916;2022-09-03T03:05:41;58.87;;;54.27;;
20635;SDS011;10477;43.198;27.916;2022-09-03T03:08:10;55.73;;;51.33;;
20635;SDS011;10477;43.198;27.916;2022-09-03T03:10:40;60.17;;;55.48;;
20635;SDS011;10477;43.198;27.916;2022-09-03T03:13:12;60.40;;;55.73;;
20635;SDS011;10477;43.198;27.916;2022-09-03T03:15:39;61.28;;;56.58;;
20635;SDS011;10477;43.198;27.916;2022-09-03T03:18:09;60.37;;;55.77;;
20635;SDS011;10477;43.198;27.916;2022-09-03T03:20:39;65.20;;;60.30;;
20635;SDS011;10477;43.198;27.916;2022-09-03T03:23:07;65.50;;;60.40;;
20635;SDS011;10477;43.198;27.916;2022-09-03T03:25:36;65.90;;;60.20;;
20635;SDS011;10477;43.198;27.916;2022-09-03T03:28:05;66.40;;;61.40;;
20635;SDS011;10477;43.198;27.916;2022-09-03T03:30:35;64.70;;;59.80;;
20635;SDS011;10477;43.198;27.916;2022-09-03T03:33:05;65.50;;;60.40;;
20635;SDS011;10477;43.198;27.916;2022-09-03T03:35:33;61.40;;;56.60;;
20635;SDS011;10477;43.198;27.916;2022-09-03T03:38:02;64.70;;;59.80;;
20635;SDS011;10477;43.198;27.916;2022-09-03T03:40:30;64.90;;;59.90;;
20635;SDS011;10477;43.198;27.916;2022-09-03T03:42:58;62.93;;;57.93;;
20635;SDS011;10477;43.198;27.916;2022-09-03T03:45:26;66.90;;;61.70;;
20635;SDS011;10477;43.198;27.916;2022-09-03T03:47:57;67.10;;;61.90;;
20635;SDS011;10477;43.198;27.916;2022-09-03T03:50:25;67.90;;;62.70;;
20635;SDS011;10477;43.198;27.916;2022-09-03T03:52:52;64.80;;;59.73;;
20635;SDS011;10477;43.198;27.916;2022-09-03T03:55:20;63.83;;;58.73;;
20635;SDS011;10477;43.198;27.916;2022-09-03T03:57:48;58.55;;;54.10;;
20635;SDS011;10477;43.198;27.916;2022-09-03T04:00:16;58.75;;;54.10;;
20635;SDS011;10477;43.198;27.916;2022-09-03T04:02:44;63.90;;;58.85;;
20635;SDS011;10477;43.198;27.916;2022-09-03T04:05:11;65.85;;;60.58;;
20635;SDS011;10477;43.198;27.916;2022-09-03T04:07:40;63.87;;;58.73;;
20635;SDS011;10477;43.198;27.916;2022-09-03T04:10:09;63.37;;;58.27;;
20635;SDS011;10477;43.198;27.916;2022-09-03T04:12:36;64.22;;;59.20;;
20635;SDS011;10477;43.198;27.916;2022-09-03T04:15:04;61.80;;;56.90;;
20635;SDS011;10477;43.198;27.916;2022-09-03T04:17:32;58.10;;;53.50;;
20635;SDS011;10477;43.198;27.916;2022-09-03T04:20:00;56.03;;;51.53;;
20635;SDS011;10477;43.198;27.916;2022-09-03T04:22:28;55.97;;;51.40;;
20635;SDS011;10477;43.198;27.916;2022-09-03T04:24:56;57.78;;;52.98;;
20635;SDS011;10477;43.198;27.916;2022-09-03T04:27:24;60.10;;;55.27;;
20635;SDS011;10477;43.198;27.916;2022-09-03T04:29:51;59.08;;;54.38;;
20635;SDS011;10477;43.198;27.916;2022-09-03T04:32:19;55.43;;;50.43;;
20635;SDS011;10477;43.198;27.916;2022-09-03T04:35:05;55.07;;;50.47;;
20635;SDS011;10477;43.198;27.916;2022-09-03T04:37:33;57.63;;;52.93;;
20635;SDS011;10477;43.198;27.916;2022-09-03T04:40:01;56.47;;;51.77;;
20635;SDS011;10477;43.198;27.916;2022-09-03T04:42:29;55.23;;;50.63;;
20635;SDS011;10477;43.198;27.916;2022-09-03T04:44:57;56.63;;;51.93;;
20635;SDS011;10477;43.198;27.916;2022-09-03T04:47:26;55.50;;;50.90;;
20635;SDS011;10477;43.198;27.916;2022-09-03T04:49:54;56.83;;;52.13;;
20635;SDS011;10477;43.198;27.916;2022-09-03T04:52:22;53.40;;;48.90;;
20635;SDS011;10477;43.198;27.916;2022-09-03T04:54:49;54.73;;;50.23;;
20635;SDS011;10477;43.198;27.916;2022-09-03T04:57:17;52.35;;;48.15;;
20635;SDS011;10477;43.198;27.916;2022-09-03T04:59:45;54.25;;;49.90;;
20635;SDS011;10477;43.198;27.916;2022-09-03T05:02:12;51.40;;;47.20;;
20635;SDS011;10477;43.198;27.916;2022-09-03T05:04:40;48.63;;;44.53;;
20635;SDS011;10477;43.198;27.916;2022-09-03T05:07:08;44.60;;;40.80;;
20635;SDS011;10477;43.198;27.916;2022-09-03T05:09:36;44.63;;;41.02;;
20635;SDS011;10477;43.198;27.916;2022-09-03T05:12:04;40.95;;;37.50;;
20635;SDS011;10477;43.198;27.916;2022-09-03T05:14:31;43.37;;;39.57;;
20635;SDS011;10477;43.198;27.916;2022-09-03T05:16:59;41.73;;;38.10;;
20635;SDS011;10477;43.198;27.916;2022-09-03T05:19:27;41.30;;;37.70;;
20635;SDS011;10477;43.198;27.916;2022-09-03T05:21:56;39.35;;;35.85;;
20635;SDS011;10477;43.198;27.916;2022-09-03T05:24:25;39.03;;;35.43;;
20635;SDS011;10477;43.198;27.916;2022-09-03T05:26:53;37.60;;;34.10;;
20635;SDS011;10477;43.198;27.916;2022-09-03T05:29:20;41.67;;;38.07;;
20635;SDS011;10477;43.198;27.916;2022-09-03T05:31:48;42.80;;;39.20;;
20635;SDS011;10477;43.198;27.916;2022-09-03T05:34:16;42.43;;;38.87;;
20635;SDS011;10477;43.198;27.916;2022-09-03T05:36:44;44.27;;;40.47;;
20635;SDS011;10477;43.198;27.916;2022-09-03T05:39:13;41.73;;;38.13;;
20635;SDS011;10477;43.198;27.916;2022-09-03T05:41:40;41.10;;;37.60;;
20635;SDS011;10477;43.198;27.916;2022-09-03T05:44:08;41.37;;;37.87;;
20635;SDS011;10477;43.198;27.916;2022-09-03T05:46:36;40.83;;;37.33;;
20635;SDS011;10477;43.198;27.916;2022-09-03T05:49:04;34.33;;;31.23;;
20635;SDS011;10477;43.198;27.916;2022-09-03T05:51:33;36.93;;;33.73;;
20635;SDS011;10477;43.198;27.916;2022-09-03T05:54:03;37.50;;;34.30;;
20635;SDS011;10477;43.198;27.916;2022-09-03T05:56:34;37.20;;;33.63;;
20635;SDS011;10477;43.198;27.916;2022-09-03T05:59:05;35.70;;;32.50;;
20635;SDS011;10477;43.198;27.916;2022-09-03T06:01:35;36.00;;;32.88;;
20635;SDS011;10477;43.198;27.916;2022-09-03T06:04:05;37.10;;;33.70;;
20635;SDS011;10477;43.198;27.916;2022-09-03T06:06:35;33.67;;;30.57;;
20635;SDS011;10477;43.198;27.916;2022-09-03T06:09:13;37.53;;;33.97;;
20635;SDS011;10477;43.198;27.916;2022-09-03T06:11:45;36.20;;;33.00;;
20635;SDS011;10477;43.198;27.916;2022-09-03T06:14:14;37.48;;;34.27;;
20635;SDS011;10477;43.198;27.916;2022-09-03T06:16:43;35.63;;;32.53;;
20635;SDS011;10477;43.198;27.916;2022-09-03T06:19:14;39.73;;;36.07;;
20635;SDS011;10477;43.198;27.916;2022-09-03T06:21:42;37.40;;;34.17;;
20635;SDS011;10477;43.198;27.916;2022-09-03T06:24:15;37.53;;;34.23;;
20635;SDS011;10477;43.198;27.916;2022-09-03T06:26:46;37.67;;;33.88;;
20635;SDS011;10477;43.198;27.916;2022-09-03T06:29:13;38.50;;;35.17;;
20635;SDS011;10477;43.198;27.916;2022-09-03T06:31:43;34.85;;;31.75;;
20635;SDS011;10477;43.198;27.916;2022-09-03T06:34:13;39.30;;;35.70;;
20635;SDS011;10477;43.198;27.916;2022-09-03T06:36:42;38.03;;;34.33;;
20635;SDS011;10477;43.198;27.916;2022-09-03T06:39:10;35.63;;;32.33;;
20635;SDS011;10477;43.198;27.916;2022-09-03T06:41:38;33.65;;;30.57;;
20635;SDS011;10477;43.198;27.916;2022-09-03T06:44:06;33.55;;;30.35;;
20635;SDS011;10477;43.198;27.916;2022-09-03T06:46:38;36.00;;;32.73;;
20635;SDS011;10477;43.198;27.916;2022-09-03T06:49:11;32.45;;;29.45;;
20635;SDS011;10477;43.198;27.916;2022-09-03T06:51:39;35.75;;;32.55;;
20635;SDS011;10477;43.198;27.916;2022-09-03T06:54:09;34.13;;;31.02;;
20635;SDS011;10477;43.198;27.916;2022-09-03T06:56:38;36.28;;;32.88;;
20635;SDS011;10477;43.198;27.916;2022-09-03T06:59:12;36.03;;;32.53;;
20635;SDS011;10477;43.198;27.916;2022-09-03T07:01:40;38.83;;;35.33;;
20635;SDS011;10477;43.198;27.916;2022-09-03T07:04:10;35.23;;;32.13;;
20635;SDS011;10477;43.198;27.916;2022-09-03T07:06:41;35.38;;;31.75;;
20635;SDS011;10477;43.198;27.916;2022-09-03T07:09:10;32.65;;;29.65;;
20635;SDS011;10477;43.198;27.916;2022-09-03T07:11:40;31.95;;;28.90;;
20635;SDS011;10477;43.198;27.916;2022-09-03T07:14:10;33.92;;;30.72;;
20635;SDS011;10477;43.198;27.916;2022-09-03T07:16:37;32.40;;;29.30;;
20635;SDS011;10477;43.198;27.916;2022-09-03T07:19:07;33.05;;;30.05;;
20635;SDS011;10477;43.198;27.916;2022-09-03T07:21:35;33.07;;;29.97;;
20635;SDS011;10477;43.198;27.916;2022-09-03T07:24:03;35.00;;;31.70;;
20635;SDS011;10477;43.198;27.916;2022-09-03T07:26:33;35.25;;;31.75;;
20635;SDS011;10477;43.198;27.916;2022-09-03T07:29:03;35.00;;;31.55;;
20635;SDS011;10477;43.198;27.916;2022-09-03T07:31:33;34.73;;;31.57;;
20635;SDS011;10477;43.198;27.916;2022-09-03T07:34:05;34.78;;;31.35;;
20635;SDS011;10477;43.198;27.916;2022-09-03T07:36:35;33.17;;;29.77;;
20635;SDS011;10477;43.198;27.916;2022-09-03T07:39:06;38.10;;;33.98;;
20635;SDS011;10477;43.198;27.916;2022-09-03T07:41:34;36.37;;;33.07;;
20635;SDS011;10477;43.198;27.916;2022-09-03T07:44:02;38.77;;;35.07;;
20635;SDS011;10477;43.198;27.916;2022-09-03T07:46:31;51.93;;;33.33;;
20635;SDS011;10477;43.198;27.916;2022-09-03T07:49:01;35.35;;;31.95;;
20635;SDS011;10477;43.198;27.916;2022-09-03T07:51:32;37.45;;;33.75;;
20635;SDS011;10477;43.198;27.916;2022-09-03T07:54:02;34.47;;;31.17;;
20635;SDS011;10477;43.198;27.916;2022-09-03T07:56:32;33.67;;;30.57;;
20635;SDS011;10477;43.198;27.916;2022-09-03T07:59:01;37.47;;;33.63;;
20635;SDS011;10477;43.198;27.916;2022-09-03T08:01:31;33.58;;;30.48;;
20635;SDS011;10477;43.198;27.916;2022-09-03T08:04:00;37.15;;;33.53;;
20635;SDS011;10477;43.198;27.916;2022-09-03T08:06:30;34.30;;;31.12;;
20635;SDS011;10477;43.198;27.916;2022-09-03T08:09:00;32.10;;;29.07;;
20635;SDS011;10477;43.198;27.916;2022-09-03T08:11:30;33.90;;;30.50;;
20635;SDS011;10477;43.198;27.916;2022-09-03T08:14:05;36.13;;;31.80;;
20635;SDS011;10477;43.198;27.916;2022-09-03T08:16:32;31.73;;;28.80;;
20635;SDS011;10477;43.198;27.916;2022-09-03T08:19:04;35.70;;;32.30;;
20635;SDS011;10477;43.198;27.916;2022-09-03T08:21:32;34.53;;;30.88;;
20635;SDS011;10477;43.198;27.916;2022-09-03T08:24:01;33.40;;;30.30;;
20635;SDS011;10477;43.198;27.916;2022-09-03T08:26:30;32.60;;;29.63;;
20635;SDS011;10477;43.198;27.916;2022-09-03T08:29:06;32.23;;;29.30;;
20635;SDS011;10477;43.198;27.916;2022-09-03T08:31:35;36.13;;;32.83;;
20635;SDS011;10477;43.198;27.916;2022-09-03T08:34:04;33.80;;;30.45;;
20635;SDS011;10477;43.198;27.916;2022-09-03T08:36:34;84.28;;;78.37;;
20635;SDS011;10477;43.198;27.916;2022-09-03T08:39:05;32.08;;;28.92;;
20635;SDS011;10477;43.198;27.916;2022-09-03T08:44:31;36.37;;;32.73;;
20635;SDS011;10477;43.198;27.916;2022-09-03T08:47:10;35.00;;;31.80;;
20635;SDS011;10477;43.198;27.916;2022-09-03T08:50:30;34.75;;;31.55;;
20635;SDS011;10477;43.198;27.916;2022-09-03T08:52:39;33.42;;;30.37;;
20635;SDS011;10477;43.198;27.916;2022-09-03T08:58:09;31.62;;;28.73;;
20635;SDS011;10477;43.198;27.916;2022-09-03T09:00:48;34.48;;;31.48;;
20635;SDS011;10477;43.198;27.916;2022-09-03T09:03:32;33.23;;;29.77;;
20635;SDS011;10477;43.198;27.916;2022-09-03T09:09:02;33.45;;;30.45;;
20635;SDS011;10477;43.198;27.916;2022-09-03T09:22:08;37.88;;;34.88;;
20635;SDS011;10477;43.198;27.916;2022-09-03T09:24:41;32.55;;;29.55;;
20635;SDS011;10477;43.198;27.916;2022-09-03T09:27:14;31.77;;;29.27;;
20635;SDS011;10477;43.198;27.916;2022-09-03T09:29:45;34.35;;;31.40;;
20635;SDS011;10477;43.198;27.916;2022-09-03T09:32:16;33.60;;;30.80;;
20635;SDS011;10477;43.198;27.916;2022-09-03T09:34:45;35.63;;;32.63;;
20635;SDS011;10477;43.198;27.916;2022-09-03T09:37:14;32.25;;;29.65;;
20635;SDS011;10477;43.198;27.916;2022-09-03T09:39:53;31.75;;;29.05;;
20635;SDS011;10477;43.198;27.916;2022-09-03T09:42:22;34.67;;;32.08;;
20635;SDS011;10477;43.198;27.916;2022-09-03T09:44:50;29.92;;;27.35;;
20635;SDS011;10477;43.198;27.916;2022-09-03T09:47:26;35.38;;;32.65;;
20635;SDS011;10477;43.198;27.916;2022-09-03T09:49:57;31.95;;;29.48;;
20635;SDS011;10477;43.198;27.916;2022-09-03T09:52:30;31.80;;;29.20;;
20635;SDS011;10477;43.198;27.916;2022-09-03T09:55:10;34.38;;;31.70;;
20635;SDS011;10477;43.198;27.916;2022-09-03T09:57:35;33.75;;;31.15;;
20635;SDS011;10477;43.198;27.916;2022-09-03T10:00:13;32.33;;;29.67;;
20635;SDS011;10477;43.198;27.916;2022-09-03T10:02:39;32.63;;;30.08;;
20635;SDS011;10477;43.198;27.916;2022-09-03T10:05:20;31.85;;;29.30;;
20635;SDS011;10477;43.198;27.916;2022-09-03T10:08:02;33.75;;;31.25;;
20635;SDS011;10477;43.198;27.916;2022-09-03T10:10:43;35.03;;;32.42;;
20635;SDS011;10477;43.198;27.916;2022-09-03T10:13:25;35.98;;;33.48;;
20635;SDS011;10477;43.198;27.916;2022-09-03T10:16:01;33.05;;;30.35;;
20635;SDS011;10477;43.198;27.916;2022-09-03T10:18:48;30.65;;;28.20;;
20635;SDS011;10477;43.198;27.916;2022-09-03T10:24:32;34.53;;;31.73;;
20635;SDS011;10477;43.198;27.916;2022-09-03T10:27:09;30.90;;;28.60;;
20635;SDS011;10477;43.198;27.916;2022-09-03T10:29:35;30.52;;;27.93;;
20635;SDS011;10477;43.198;27.916;2022-09-03T10:43:07;32.53;;;30.12;;
20635;SDS011;10477;43.198;27.916;2022-09-03T10:45:46;32.83;;;30.23;;
20635;SDS011;10477;43.198;27.916;2022-09-03T11:02:45;33.80;;;31.30;;
20635;SDS011;10477;43.198;27.916;2022-09-03T11:05:40;32.23;;;29.82;;
20635;SDS011;10477;43.198;27.916;2022-09-03T11:08:16;30.32;;;27.93;;
20635;SDS011;10477;43.198;27.916;2022-09-03T11:10:49;31.02;;;28.73;;
20635;SDS011;10477;43.198;27.916;2022-09-03T11:13:26;33.35;;;30.95;;
20635;SDS011;10477;43.198;27.916;2022-09-03T11:16:07;33.95;;;31.35;;
20635;SDS011;10477;43.198;27.916;2022-09-03T11:18:45;33.65;;;31.07;;
20635;SDS011;10477;43.198;27.916;2022-09-03T11:21:17;30.55;;;28.15;;
20635;SDS011;10477;43.198;27.916;2022-09-03T11:23:58;32.33;;;29.92;;
20635;SDS011;10477;43.198;27.916;2022-09-03T11:26:25;31.75;;;29.35;;
20635;SDS011;10477;43.198;27.916;2022-09-03T11:29:02;36.48;;;33.88;;
20635;SDS011;10477;43.198;27.916;2022-09-03T11:31:54;33.48;;;30.97;;
20635;SDS011;10477;43.198;27.916;2022-09-03T11:37:16;39.92;;;36.95;;
20635;SDS011;10477;43.198;27.916;2022-09-03T11:42:34;38.65;;;35.50;;
20635;SDS011;10477;43.198;27.916;2022-09-03T11:45:32;34.27;;;31.45;;
20635;SDS011;10477;43.198;27.916;2022-09-03T11:47:55;34.23;;;31.23;;
20635;SDS011;10477;43.198;27.916;2022-09-03T11:50:24;32.80;;;30.30;;
20635;SDS011;10477;43.198;27.916;2022-09-03T11:53:40;33.80;;;31.20;;
20635;SDS011;10477;43.198;27.916;2022-09-03T11:55:51;34.18;;;31.52;;
20635;SDS011;10477;43.198;27.916;2022-09-03T11:58:29;30.82;;;28.52;;
20635;SDS011;10477;43.198;27.916;2022-09-03T12:01:06;31.80;;;29.40;;
20635;SDS011;10477;43.198;27.916;2022-09-03T12:09:21;35.05;;;31.97;;
20635;SDS011;10477;43.198;27.916;2022-09-03T12:12:02;30.77;;;28.27;;
20635;SDS011;10477;43.198;27.916;2022-09-03T12:14:31;31.15;;;28.65;;
20635;SDS011;10477;43.198;27.916;2022-09-03T12:20:18;36.60;;;33.90;;
20635;SDS011;10477;43.198;27.916;2022-09-03T12:22:47;36.83;;;34.08;;
20635;SDS011;10477;43.198;27.916;2022-09-03T12:25:15;32.17;;;29.57;;
20635;SDS011;10477;43.198;27.916;2022-09-03T12:27:43;37.23;;;34.35;;
20635;SDS011;10477;43.198;27.916;2022-09-03T12:30:23;32.53;;;29.82;;
20635;SDS011;10477;43.198;27.916;2022-09-03T12:32:44;34.13;;;31.48;;
20635;SDS011;10477;43.198;27.916;2022-09-03T12:35:23;36.28;;;33.40;;
20635;SDS011;10477;43.198;27.916;2022-09-03T12:37:47;28.87;;;26.57;;
20635;SDS011;10477;43.198;27.916;2022-09-03T12:40:22;30.90;;;28.50;;
20635;SDS011;10477;43.198;27.916;2022-09-03T12:42:49;34.40;;;31.65;;
20635;SDS011;10477;43.198;27.916;2022-09-03T12:45:18;33.07;;;29.80;;
20635;SDS011;10477;43.198;27.916;2022-09-03T12:47:47;32.60;;;29.92;;
20635;SDS011;10477;43.198;27.916;2022-09-03T12:50:17;30.05;;;27.60;;
20635;SDS011;10477;43.198;27.916;2022-09-03T12:52:50;31.62;;;29.12;;
20635;SDS011;10477;43.198;27.916;2022-09-03T13:00:32;36.42;;;29.85;;
20635;SDS011;10477;43.198;27.916;2022-09-03T13:03:07;31.73;;;29.13;;
20635;SDS011;10477;43.198;27.916;2022-09-03T13:05:53;33.33;;;30.62;;
20635;SDS011;10477;43.198;27.916;2022-09-03T13:08:28;34.95;;;32.08;;
20635;SDS011;10477;43.198;27.916;2022-09-03T13:10:54;38.00;;;34.70;;
20635;SDS011;10477;43.198;27.916;2022-09-03T13:23:47;32.63;;;30.02;;
20635;SDS011;10477;43.198;27.916;2022-09-03T13:29:11;34.10;;;31.25;;
20635;SDS011;10477;43.198;27.916;2022-09-03T13:31:51;34.03;;;31.12;;
20635;SDS011;10477;43.198;27.916;2022-09-03T13:34:39;32.00;;;29.35;;
20635;SDS011;10477;43.198;27.916;2022-09-03T13:40:02;28.87;;;25.40;;
20635;SDS011;10477;43.198;27.916;2022-09-03T13:45:11;32.50;;;29.60;;
20635;SDS011;10477;43.198;27.916;2022-09-03T13:47:51;34.58;;;31.77;;
20635;SDS011;10477;43.198;27.916;2022-09-03T13:50:44;65.70;;;60.90;;
20635;SDS011;10477;43.198;27.916;2022-09-03T13:59:00;36.07;;;32.90;;
20635;SDS011;10477;43.198;27.916;2022-09-03T14:04:09;36.23;;;33.33;;
20635;SDS011;10477;43.198;27.916;2022-09-03T14:06:45;32.63;;;29.93;;
20635;SDS011;10477;43.198;27.916;2022-09-03T14:12:40;33.45;;;30.70;;
20635;SDS011;10477;43.198;27.916;2022-09-03T14:15:07;37.67;;;34.67;;
20635;SDS011;10477;43.198;27.916;2022-09-03T14:20:25;31.53;;;28.87;;
20635;SDS011;10477;43.198;27.916;2022-09-03T14:25:54;35.73;;;32.73;;
20635;SDS011;10477;43.198;27.916;2022-09-03T14:39:33;36.73;;;33.70;;
20635;SDS011;10477;43.198;27.916;2022-09-03T14:44:58;39.67;;;36.47;;
20635;SDS011;10477;43.198;27.916;2022-09-03T14:47:53;65.37;;;60.63;;
20635;SDS011;10477;43.198;27.916;2022-09-03T14:53:13;37.58;;;34.18;;
20635;SDS011;10477;43.198;27.916;2022-09-03T14:58:38;38.33;;;35.23;;
20635;SDS011;10477;43.198;27.916;2022-09-03T15:01:09;41.77;;;38.27;;
20635;SDS011;10477;43.198;27.916;2022-09-03T15:06:56;37.30;;;34.07;;
20635;SDS011;10477;43.198;27.916;2022-09-03T15:09:41;38.37;;;35.10;;
20635;SDS011;10477;43.198;27.916;2022-09-03T15:12:16;42.77;;;39.37;;
20635;SDS011;10477;43.198;27.916;2022-09-03T15:14:53;80.07;;;74.47;;
20635;SDS011;10477;43.198;27.916;2022-09-03T15:28:49;37.17;;;34.27;;
20635;SDS011;10477;43.198;27.916;2022-09-03T15:31:35;40.13;;;36.70;;
20635;SDS011;10477;43.198;27.916;2022-09-03T15:37:12;39.40;;;36.20;;
20635;SDS011;10477;43.198;27.916;2022-09-03T15:39:57;48.57;;;44.53;;
20635;SDS011;10477;43.198;27.916;2022-09-03T15:42:35;35.73;;;32.73;;
20635;SDS011;10477;43.198;27.916;2022-09-03T15:45:06;45.53;;;40.93;;
20635;SDS011;10477;43.198;27.916;2022-09-03T15:47:36;35.80;;;32.70;;
20635;SDS011;10477;43.198;27.916;2022-09-03T16:07:26;46.17;;;42.47;;
20635;SDS011;10477;43.198;27.916;2022-09-03T16:09:57;42.50;;;39.00;;
20635;SDS011;10477;43.198;27.916;2022-09-03T16:12:35;49.57;;;45.47;;
20635;SDS011;10477;43.198;27.916;2022-09-03T16:15:26;41.53;;;37.97;;
20635;SDS011;10477;43.198;27.916;2022-09-03T16:18:12;42.70;;;39.20;;
20635;SDS011;10477;43.198;27.916;2022-09-03T16:23:20;42.97;;;39.37;;
20635;SDS011;10477;43.198;27.916;2022-09-03T16:28:23;44.50;;;40.80;;
20635;SDS011;10477;43.198;27.916;2022-09-03T16:33:42;46.00;;;42.20;;
20635;SDS011;10477;43.198;27.916;2022-09-03T16:47:15;49.23;;;45.43;;
20635;SDS011;10477;43.198;27.916;2022-09-03T16:50:22;51.57;;;47.17;;
20635;SDS011;10477;43.198;27.916;2022-09-03T16:55:54;45.43;;;41.50;;
20635;SDS011;10477;43.198;27.916;2022-09-03T16:58:35;49.88;;;45.88;;
20635;SDS011;10477;43.198;27.916;2022-09-03T17:03:52;48.03;;;44.03;;
20635;SDS011;10477;43.198;27.916;2022-09-03T17:09:10;49.20;;;45.20;;
20635;SDS011;10477;43.198;27.916;2022-09-03T17:11:41;49.47;;;45.47;;
20635;SDS011;10477;43.198;27.916;2022-09-03T17:31:07;52.83;;;48.83;;
20635;SDS011;10477;43.198;27.916;2022-09-03T17:36:29;48.00;;;43.87;;
20635;SDS011;10477;43.198;27.916;2022-09-03T17:41:41;48.53;;;44.77;;
20635;SDS011;10477;43.198;27.916;2022-09-03T17:44:16;46.60;;;42.80;;
20635;SDS011;10477;43.198;27.916;2022-09-03T17:46:46;52.03;;;47.67;;
20635;SDS011;10477;43.198;27.916;2022-09-03T17:49:20;75.67;;;70.37;;
20635;SDS011;10477;43.198;27.916;2022-09-03T17:51:57;47.13;;;43.43;;
20635;SDS011;10477;43.198;27.916;2022-09-03T17:54:27;50.63;;;46.07;;
20635;SDS011;10477;43.198;27.916;2022-09-03T18:05:25;60.87;;;56.03;;
20635;SDS011;10477;43.198;27.916;2022-09-03T18:10:50;50.40;;;46.40;;
20635;SDS011;10477;43.198;27.916;2022-09-03T18:16:31;42.43;;;38.80;;
20635;SDS011;10477;43.198;27.916;2022-09-03T18:19:01;68.47;;;63.57;;
20635;SDS011;10477;43.198;27.916;2022-09-03T18:21:33;51.83;;;47.83;;
20635;SDS011;10477;43.198;27.916;2022-09-03T18:24:33;49.57;;;45.77;;
20635;SDS011;10477;43.198;27.916;2022-09-03T18:27:28;58.57;;;54.03;;
20635;SDS011;10477;43.198;27.916;2022-09-03T18:30:14;49.63;;;45.87;;
20635;SDS011;10477;43.198;27.916;2022-09-03T18:33:00;41.67;;;37.97;;
20635;SDS011;10477;43.198;27.916;2022-09-03T18:35:46;52.93;;;48.92;;
20635;SDS011;10477;43.198;27.916;2022-09-03T18:38:32;47.80;;;44.00;;
20635;SDS011;10477;43.198;27.916;2022-09-03T18:44:22;40.43;;;37.10;;
20635;SDS011;10477;43.198;27.916;2022-09-03T18:47:23;39.67;;;36.40;;
20635;SDS011;10477;43.198;27.916;2022-09-03T18:50:29;75.13;;;69.97;;
20635;SDS011;10477;43.198;27.916;2022-09-03T18:53:13;48.30;;;44.50;;
20635;SDS011;10477;43.198;27.916;2022-09-03T18:56:02;51.47;;;47.57;;
20635;SDS011;10477;43.198;27.916;2022-09-03T19:02:05;49.70;;;45.97;;
20635;SDS011;10477;43.198;27.916;2022-09-03T19:05:18;66.07;;;61.23;;
20635;SDS011;10477;43.198;27.916;2022-09-03T19:11:20;45.57;;;41.83;;
20635;SDS011;10477;43.198;27.916;2022-09-03T19:14:25;46.03;;;42.23;;
20635;SDS011;10477;43.198;27.916;2022-09-03T19:17:20;55.67;;;51.17;;
20635;SDS011;10477;43.198;27.916;2022-09-03T19:23:12;55.80;;;51.50;;